Time;durP1;ratioP1;P1;durP2;ratioP2;P2;SDS_P1;SDS_P2;PMS_P1;PMS_P2;Temp;Humidity;BMP_temperature;BMP_pressure;BME280_temperature;BME280_humidity;BME280_pressure;Samples;Min_cycle;Max_cycle;Signal;HPM_P1;HPM_P2
2020/12/26 00:00:27;;;;;;;3.95;0.73;;;;;;;6.26;100.00;103327.22;5091852;28;20491;-65
2020/12/26 00:02:53;;;;;;;3.83;0.77;;;;;;;6.25;100.00;103336.38;5091608;28;20109;-65
2020/12/26 00:05:18;;;;;;;1.65;0.50;;;;;;;6.22;100.00;103331.22;5090339;28;20432;-65
2020/12/26 00:07:44;;;;;;;2.88;0.43;;;;;;;6.22;100.00;103331.22;5090113;28;20501;-65
2020/12/26 00:10:10;;;;;;;1.35;0.60;;;;;;;6.23;100.00;103337.50;5091621;28;20549;-65
2020/12/26 00:12:35;;;;;;;1.50;0.60;;;;;;;6.24;100.00;103333.78;5091350;28;20059;-66
2020/12/26 00:15:01;;;;;;;2.58;0.52;;;;;;;6.25;100.00;103322.81;5091925;28;20386;-64
2020/12/26 00:17:27;;;;;;;0.98;0.65;;;;;;;6.26;100.00;103308.22;5091541;28;20036;-65
2020/12/26 00:19:53;;;;;;;3.58;0.80;;;;;;;6.26;100.00;103299.25;5091167;28;20181;-66
2020/12/26 00:22:18;;;;;;;1.75;0.90;;;;;;;6.25;100.00;103301.09;5091360;28;20561;-66
2020/12/26 00:24:44;;;;;;;3.25;0.60;;;;;;;6.27;100.00;103307.22;5091332;28;20058;-66
2020/12/26 00:27:10;;;;;;;1.88;0.77;;;;;;;6.23;100.00;103297.66;5091290;28;20044;-65
2020/12/26 00:29:35;;;;;;;1.25;0.77;;;;;;;6.22;100.00;103286.97;5091269;28;20501;-65
2020/12/26 00:32:01;;;;;;;3.95;0.70;;;;;;;6.24;100.00;103279.50;5091233;28;20098;-66
2020/12/26 00:34:26;;;;;;;3.53;0.98;;;;;;;6.25;100.00;103282.09;5091291;28;20425;-65
2020/12/26 00:36:52;;;;;;;3.42;1.20;;;;;;;6.27;100.00;103285.50;5091098;28;20040;-66
2020/12/26 00:39:19;;;;;;;3.10;0.82;;;;;;;6.28;100.00;103284.50;5089920;28;20047;-66
2020/12/26 00:41:46;;;;;;;1.98;0.73;;;;;;;6.32;100.00;103277.75;5091024;28;20498;-65
2020/12/26 00:44:13;;;;;;;3.75;0.60;;;;;;;6.33;100.00;103268.59;5091015;28;20543;-65
2020/12/26 00:46:38;;;;;;;4.43;0.70;;;;;;;6.35;100.00;103261.16;5091002;28;20047;-65
2020/12/26 00:49:04;;;;;;;2.30;0.95;;;;;;;6.37;100.00;103262.84;5091055;28;20406;-65
2020/12/26 00:51:29;;;;;;;1.45;0.70;;;;;;;6.38;100.00;103256.41;5091119;28;20039;-65
2020/12/26 00:53:55;;;;;;;1.13;0.70;;;;;;;6.37;100.00;103252.84;5090939;28;20517;-65
2020/12/26 00:56:21;;;;;;;1.83;0.98;;;;;;;6.38;100.00;103243.69;5091006;28;20493;-65
2020/12/26 00:58:46;;;;;;;2.75;0.73;;;;;;;6.41;100.00;103239.81;5090795;28;20044;-65
2020/12/26 01:01:15;;;;;;;2.60;1.05;;;;;;;6.44;100.00;103236.81;5090948;28;20036;-65
2020/12/26 01:03:41;;;;;;;4.00;0.98;;;;;;;6.47;100.00;103231.06;5090860;28;20508;-64
2020/12/26 01:06:12;;;;;;;3.28;0.95;;;;;;;6.50;100.00;103233.47;5090994;28;20064;-66
2020/12/26 01:08:39;;;;;;;3.83;1.00;;;;;;;6.48;100.00;103230.06;5090867;28;20044;-65
2020/12/26 01:11:05;;;;;;;3.30;0.70;;;;;;;6.50;100.00;103220.72;5090894;28;20036;-65
2020/12/26 01:13:30;;;;;;;4.63;0.88;;;;;;;6.50;100.00;103228.03;5090491;28;20521;-66
2020/12/26 01:15:56;;;;;;;2.63;0.93;;;;;;;6.50;100.00;103225.31;5090802;28;20043;-65
2020/12/26 01:18:22;;;;;;;3.35;1.38;;;;;;;6.48;100.00;103217.31;5090786;28;20108;-65
2020/12/26 01:20:47;;;;;;;3.00;0.90;;;;;;;6.48;100.00;103214.59;5090749;28;20038;-65
2020/12/26 01:23:13;;;;;;;1.45;0.90;;;;;;;6.47;100.00;103201.19;5089391;28;20081;-65
2020/12/26 01:25:39;;;;;;;2.28;1.10;;;;;;;6.46;100.00;103186.78;5090641;28;20653;-65
2020/12/26 01:28:04;;;;;;;3.47;0.90;;;;;;;6.46;100.00;103188.63;5090619;28;20135;-65
2020/12/26 01:30:30;;;;;;;3.05;1.10;;;;;;;6.45;100.00;103189.66;5090890;28;20520;-65
2020/12/26 01:32:55;;;;;;;2.65;1.33;;;;;;;6.42;100.00;103190.81;5094212;28;20505;-66
2020/12/26 01:35:21;;;;;;;4.35;1.50;;;;;;;6.41;100.00;103185.50;5094586;28;20151;-65
2020/12/26 01:37:46;;;;;;;4.47;1.17;;;;;;;6.38;100.00;103178.53;5094359;28;20024;-65
2020/12/26 01:40:12;;;;;;;3.35;1.42;;;;;;;6.34;100.00;103172.59;5094544;28;20455;-65
2020/12/26 01:42:39;;;;;;;3.35;1.35;;;;;;;6.30;100.00;103173.06;5094170;28;20172;-65
2020/12/26 01:45:05;;;;;;;4.47;1.20;;;;;;;6.24;100.00;103170.94;5094539;28;20398;-66
2020/12/26 01:47:31;;;;;;;3.67;1.30;;;;;;;6.20;100.00;103165.00;5094591;28;20408;-65
2020/12/26 01:49:57;;;;;;;2.75;1.20;;;;;;;6.15;100.00;103151.06;5094603;28;20048;-65
2020/12/26 01:52:23;;;;;;;4.40;1.20;;;;;;;6.13;100.00;103152.22;5094216;28;20039;-65
2020/12/26 01:54:49;;;;;;;4.25;1.55;;;;;;;6.09;100.00;103146.25;5094207;28;20409;-65
2020/12/26 01:57:15;;;;;;;3.15;1.27;;;;;;;6.07;100.00;103142.81;5094139;28;20032;-65
2020/12/26 01:59:40;;;;;;;4.40;1.45;;;;;;;6.05;100.00;103139.41;5094025;28;20409;-65
2020/12/26 02:02:09;;;;;;;3.65;1.20;;;;;;;6.08;100.00;103143.72;5094078;28;20032;-66
2020/12/26 02:04:35;;;;;;;1.95;1.30;;;;;;;6.09;100.00;103140.84;5093927;28;20550;-65
2020/12/26 02:07:05;;;;;;;5.88;1.25;;;;;;;6.11;100.00;103133.38;5093915;28;20044;-65
2020/12/26 02:09:31;;;;;;;3.67;1.23;;;;;;;6.14;100.00;103122.22;5093850;28;20581;-65
2020/12/26 02:11:56;;;;;;;2.67;1.25;;;;;;;6.17;100.00;103116.47;5093693;28;20135;-65
2020/12/26 02:14:22;;;;;;;7.80;1.70;;;;;;;6.20;100.00;103123.44;5094033;28;20039;-65
2020/12/26 02:16:50;;;;;;;3.47;1.52;;;;;;;6.23;100.00;103115.81;5093711;28;20044;-65
2020/12/26 02:19:17;;;;;;;2.55;1.30;;;;;;;6.24;100.00;103106.66;5093795;28;20059;-65
2020/12/26 02:21:43;;;;;;;2.70;1.00;;;;;;;6.26;100.00;103114.69;5093564;28;20451;-65
2020/12/26 02:24:10;;;;;;;3.92;1.35;;;;;;;6.27;100.00;103108.25;5093512;28;20036;-65
2020/12/26 02:26:36;;;;;;;2.90;1.30;;;;;;;6.27;100.00;103100.94;5093597;28;20067;-65
2020/12/26 02:29:02;;;;;;;4.50;1.20;;;;;;;6.28;100.00;103086.38;5093597;28;20051;-65
2020/12/26 02:31:28;;;;;;;3.25;1.25;;;;;;;6.31;100.00;103091.47;5092244;28;20044;-65
2020/12/26 02:33:54;;;;;;;2.33;1.10;;;;;;;6.32;100.00;103085.03;5093433;28;20040;-65
2020/12/26 02:36:20;;;;;;;3.47;1.05;;;;;;;6.32;100.00;103076.88;5093407;28;20040;-65
2020/12/26 02:38:46;;;;;;;2.33;0.90;;;;;;;6.32;100.00;103076.88;5093236;28;20043;-64
2020/12/26 02:41:12;;;;;;;7.93;1.00;;;;;;;6.32;100.00;103071.47;5093329;28;20050;-65
2020/12/26 02:43:37;;;;;;;6.40;0.80;;;;;;;6.35;100.00;103070.28;5093172;28;20067;-65
2020/12/26 02:46:03;;;;;;;8.02;0.80;;;;;;;6.35;100.00;103065.72;5093352;28;20113;-65
2020/12/26 02:48:29;;;;;;;3.78;0.80;;;;;;;6.35;100.00;103071.13;5091740;28;20040;-65
2020/12/26 02:50:56;;;;;;;6.18;1.02;;;;;;;6.38;100.00;103060.97;5093176;28;20028;-66
2020/12/26 02:53:22;;;;;;;6.88;1.10;;;;;;;6.37;100.00;103051.13;5092869;28;20059;-65
2020/12/26 02:55:47;;;;;;;5.45;1.10;;;;;;;6.39;100.00;103054.53;5093154;28;20036;-66
2020/12/26 02:58:13;;;;;;;9.02;1.10;;;;;;;6.39;100.00;103049.09;5092931;28;20046;-66
2020/12/26 03:00:39;;;;;;;5.45;1.00;;;;;;;6.43;100.00;103045.06;5092921;28;20481;-65
2020/12/26 03:03:09;;;;;;;4.47;0.90;;;;;;;6.46;100.00;103044.75;5092805;28;20108;-66
2020/12/26 03:05:34;;;;;;;5.35;0.98;;;;;;;6.50;100.00;103040.69;5092874;28;20545;-65
2020/12/26 03:08:00;;;;;;;4.53;0.95;;;;;;;6.53;100.00;103045.78;5092651;28;20125;-65
2020/12/26 03:10:26;;;;;;;6.13;0.93;;;;;;;6.53;100.00;103051.22;5092801;28;20496;-65
2020/12/26 03:12:52;;;;;;;6.72;0.98;;;;;;;6.55;100.00;103060.06;5092291;28;20416;-65
2020/12/26 03:15:18;;;;;;;5.53;1.77;;;;;;;6.58;100.00;103054.28;5092682;28;20032;-66
2020/12/26 03:17:44;;;;;;;4.00;0.88;;;;;;;6.59;100.00;103059.56;5092571;28;20078;-65
2020/12/26 03:20:09;;;;;;;4.00;0.93;;;;;;;6.62;100.00;103061.13;5092608;28;20115;-65
2020/12/26 03:22:35;;;;;;;6.43;1.35;;;;;;;6.64;100.00;103064.53;5090949;28;20085;-66
2020/12/26 03:25:00;;;;;;;6.43;0.60;;;;;;;6.69;100.00;103056.75;5092475;28;20043;-65
2020/12/26 03:27:26;;;;;;;5.88;1.33;;;;;;;6.72;100.00;103048.25;5092327;28;20031;-66
2020/12/26 03:29:53;;;;;;;4.28;0.60;;;;;;;6.75;100.00;103056.06;5092298;28;20112;-65
2020/12/26 03:32:20;;;;;;;10.73;1.25;;;;;;;6.82;100.00;103059.88;5092201;28;20127;-65
2020/12/26 03:34:45;;;;;;;9.02;0.85;;;;;;;6.85;100.00;103062.25;5092356;28;20397;-65
2020/12/26 03:37:11;;;;;;;6.68;0.77;;;;;;;6.87;100.00;103052.06;5090946;28;20054;-65
2020/12/26 03:39:37;;;;;;;8.45;1.63;;;;;;;6.89;100.00;103055.47;5092164;28;20127;-65
2020/12/26 03:42:04;;;;;;;6.13;1.20;;;;;;;6.91;100.00;103050.72;5092238;28;20480;-65
2020/12/26 03:44:30;;;;;;;10.30;0.60;;;;;;;6.94;100.00;103049.53;5092118;28;20047;-65
2020/12/26 03:46:55;;;;;;;6.72;1.17;;;;;;;6.97;100.00;103045.66;5092036;28;20192;-65
2020/12/26 03:49:22;;;;;;;10.48;0.90;;;;;;;6.97;100.00;103042.94;5092066;28;20485;-64
2020/12/26 03:51:47;;;;;;;6.68;0.80;;;;;;;7.00;100.00;103048.91;5092035;28;20044;-65
2020/12/26 03:54:13;;;;;;;10.90;0.93;;;;;;;7.00;100.00;103042.63;5091440;28;20044;-65
2020/12/26 03:56:39;;;;;;;6.22;0.68;;;;;;;7.00;100.00;103042.63;5091949;28;20436;-66
2020/12/26 03:59:04;;;;;;;8.43;1.10;;;;;;;7.02;100.00;103048.72;5091998;28;20054;-67
2020/12/26 04:01:30;;;;;;;8.70;1.40;;;;;;;7.01;100.00;103039.72;5091965;28;20040;-65
2020/12/26 04:03:55;;;;;;;5.32;1.25;;;;;;;7.03;100.00;103034.13;5091517;28;20795;-64
2020/12/26 04:06:21;;;;;;;7.53;0.75;;;;;;;7.03;100.00;103025.97;5091770;28;20043;-65
2020/12/26 04:08:46;;;;;;;2.88;0.60;;;;;;;7.05;100.00;103026.66;5091617;28;20039;-66
2020/12/26 04:11:12;;;;;;;6.10;0.90;;;;;;;7.07;100.00;103016.47;5091607;28;20036;-68
2020/12/26 04:13:38;;;;;;;6.45;0.88;;;;;;;7.11;100.00;103012.41;5091359;28;20121;-67
2020/12/26 04:16:03;;;;;;;5.25;1.05;;;;;;;7.16;100.00;102991.03;5091514;28;20047;-64
2020/12/26 04:18:29;;;;;;;7.10;0.60;;;;;;;7.22;100.00;102998.50;5091499;28;20035;-67
2020/12/26 04:20:54;;;;;;;6.18;0.63;;;;;;;7.29;100.00;102988.69;5091350;28;20040;-65
2020/12/26 04:23:20;;;;;;;2.30;0.60;;;;;;;7.33;100.00;102984.59;5091299;28;20051;-64
2020/12/26 04:25:46;;;;;;;8.05;0.70;;;;;;;7.34;100.00;102980.84;5091352;28;20040;-65
2020/12/26 04:28:13;;;;;;;8.27;0.70;;;;;;;7.36;100.00;102978.81;5091439;28;20043;-64
2020/12/26 04:30:39;;;;;;;6.57;0.98;;;;;;;7.42;100.00;102982.72;5091380;28;20082;-64
2020/12/26 04:33:05;;;;;;;6.20;0.90;;;;;;;7.43;100.00;102968.94;5091196;28;20036;-65
2020/12/26 04:35:30;;;;;;;3.35;0.45;;;;;;;7.49;100.00;102962.00;5091263;28;20043;-66
2020/12/26 04:37:56;;;;;;;6.20;0.80;;;;;;;7.52;100.00;102957.06;5091202;28;20036;-65
2020/12/26 04:40:22;;;;;;;5.97;0.55;;;;;;;7.58;100.00;102950.09;5091429;28;20035;-65
2020/12/26 04:42:50;;;;;;;7.30;0.50;;;;;;;7.62;100.00;102951.44;5090988;28;20046;-65
2020/12/26 04:45:16;;;;;;;11.73;1.25;;;;;;;7.64;100.00;102948.59;5091095;28;20469;-65
2020/12/26 04:47:53;;;;;;;4.25;0.55;;;;;;;7.66;100.00;102941.09;5090902;28;20482;-65
2020/12/26 04:50:27;;;;;;;4.40;0.70;;;;;;;7.69;100.00;102936.16;5091041;28;20044;-65
2020/12/26 04:52:57;;;;;;;4.67;0.50;;;;;;;7.70;100.00;102934.28;5091016;28;20131;-65
2020/12/26 04:55:28;;;;;;;7.57;0.40;;;;;;;7.71;100.00;102933.25;5091054;28;20043;-65
2020/12/26 04:58:06;;;;;;;5.82;0.63;;;;;;;7.72;100.00;102924.06;5090973;28;20044;-66
2020/12/26 05:00:33;;;;;;;10.48;0.60;;;;;;;7.73;100.00;102923.06;5090886;28;20035;-66
2020/12/26 05:03:17;;;;;;;7.28;0.80;;;;;;;7.73;100.00;102909.44;5090853;28;20094;-65
2020/12/26 05:05:44;;;;;;;9.50;1.02;;;;;;;7.74;100.00;102900.25;5090896;28;20123;-65
2020/12/26 05:08:10;;;;;;;4.75;0.77;;;;;;;7.74;100.00;102892.94;5095011;28;20445;-65
2020/12/26 05:10:36;;;;;;;4.63;1.05;;;;;;;7.72;100.00;102902.31;5095045;28;20500;-65
2020/12/26 05:13:04;;;;;;;5.70;0.60;;;;;;;7.71;100.00;102906.06;5094737;28;20051;-65
2020/12/26 05:15:30;;;;;;;9.63;0.80;;;;;;;7.70;100.00;102898.94;5095015;28;20071;-65
2020/12/26 05:17:56;;;;;;;11.65;0.75;;;;;;;7.70;100.00;102898.94;5094815;28;20075;-66
2020/12/26 05:20:23;;;;;;;6.90;0.70;;;;;;;7.70;100.00;102890.75;5094993;28;20048;-66
2020/12/26 05:22:49;;;;;;;6.57;0.60;;;;;;;7.71;100.00;102885.16;5094647;28;20101;-65
2020/12/26 05:25:15;;;;;;;5.80;1.20;;;;;;;7.72;100.00;102883.28;5094808;28;20040;-65
2020/12/26 05:27:41;;;;;;;8.57;1.92;;;;;;;7.74;100.00;102881.22;5094593;28;20054;-65
2020/12/26 05:30:07;;;;;;;8.07;0.98;;;;;;;7.73;100.00;102876.81;5093307;28;20131;-65
2020/12/26 05:32:33;;;;;;;3.67;0.65;;;;;;;7.75;100.00;102880.19;5094907;28;20062;-65
2020/12/26 05:35:08;;;;;;;15.05;1.08;;;;;;;7.79;100.00;102881.53;5094683;28;20068;-65
2020/12/26 05:37:37;;;;;;;4.72;0.70;;;;;;;7.83;100.00;102877.47;5094456;28;20534;-66
2020/12/26 05:40:03;;;;;;;8.80;0.60;;;;;;;7.88;100.00;102872.34;5094508;28;20040;-65
2020/12/26 05:42:29;;;;;;;5.63;1.05;;;;;;;7.91;100.00;102874.72;5094249;28;20499;-65
2020/12/26 05:45:10;;;;;;;9.30;0.98;;;;;;;7.93;100.00;102867.22;5094425;28;20035;-65
2020/12/26 05:47:36;;;;;;;2.88;1.10;;;;;;;7.97;100.00;102863.13;5094379;28;20039;-65
2020/12/26 05:50:02;;;;;;;4.32;0.52;;;;;;;8.01;100.00;102859.06;5094330;28;20044;-65
2020/12/26 05:52:29;;;;;;;14.77;1.35;;;;;;;8.02;100.00;102852.56;5094300;28;20038;-65
2020/12/26 05:54:55;;;;;;;6.93;0.80;;;;;;;8.03;100.00;102857.00;5092814;28;20059;-65
2020/12/26 05:57:21;;;;;;;10.88;1.30;;;;;;;8.07;100.00;102852.88;5094172;28;20120;-65
2020/12/26 05:59:48;;;;;;;7.80;0.73;;;;;;;8.07;100.00;102847.44;5094130;28;20046;-65
2020/12/26 06:02:28;;;;;;;7.97;1.27;;;;;;;8.11;100.00;102832.44;5094065;28;20093;-66
2020/12/26 06:05:00;;;;;;;10.45;1.35;;;;;;;8.14;100.00;102834.81;5094192;28;20040;-65
2020/12/26 06:07:27;;;;;;;10.77;0.88;;;;;;;8.12;100.00;102834.16;5094015;28;20032;-65
2020/12/26 06:09:55;;;;;;;9.32;0.98;;;;;;;8.13;100.00;102837.72;5094215;28;20042;-64
2020/12/26 06:12:22;;;;;;;6.70;0.68;;;;;;;8.14;100.00;102825.81;5093657;28;20168;-65
2020/12/26 06:14:49;;;;;;;6.75;1.08;;;;;;;8.15;100.00;102819.31;5093891;28;20438;-65
2020/12/26 06:17:23;;;;;;;4.75;0.88;;;;;;;8.18;100.00;102826.31;5093406;28;20149;-65
2020/12/26 06:19:57;;;;;;;4.20;1.20;;;;;;;8.18;100.00;102826.31;5092354;28;20393;-65
2020/12/26 06:22:23;;;;;;;4.80;0.82;;;;;;;8.24;100.00;102831.03;5093914;28;20398;-65
2020/12/26 06:24:49;;;;;;;9.27;1.00;;;;;;;8.22;100.00;102822.22;5093583;28;20051;-65
2020/12/26 06:27:15;;;;;;;8.25;1.70;;;;;;;8.27;100.00;102819.78;5093539;28;20036;-65
2020/12/26 06:29:44;;;;;;;17.10;1.10;;;;;;;8.26;100.00;102813.50;5093549;28;20085;-65
2020/12/26 06:32:14;;;;;;;9.65;1.13;;;;;;;8.27;100.00;102803.44;5094032;28;20055;-65
2020/12/26 06:34:43;;;;;;;9.32;1.23;;;;;;;8.30;100.00;102797.66;5093354;28;20044;-65
2020/12/26 06:37:12;;;;;;;6.07;1.25;;;;;;;8.30;100.00;102797.66;5093365;28;20031;-65
2020/12/26 06:39:39;;;;;;;6.93;0.82;;;;;;;8.34;100.00;102796.31;5093440;28;20044;-65
2020/12/26 06:42:14;;;;;;;9.90;1.48;;;;;;;8.35;100.00;102792.56;5093343;28;20036;-65
2020/12/26 06:44:40;;;;;;;13.02;1.33;;;;;;;8.37;100.00;102787.78;5093183;28;20040;-65
2020/12/26 06:47:06;;;;;;;8.40;0.70;;;;;;;8.40;100.00;102782.81;5093181;28;20036;-64
2020/12/26 06:49:32;;;;;;;11.43;1.15;;;;;;;8.42;100.00;102779.91;5093117;28;20359;-65
2020/12/26 06:51:58;;;;;;;9.90;0.93;;;;;;;8.44;100.00;102777.84;5093083;28;20039;-65
2020/12/26 06:54:41;;;;;;;11.25;1.17;;;;;;;8.45;100.00;102774.09;5093121;28;20047;-64
2020/12/26 06:57:07;;;;;;;7.68;1.00;;;;;;;8.44;100.00;102769.69;5092992;28;20040;-65
2020/12/26 06:59:34;;;;;;;15.32;1.05;;;;;;;8.46;100.00;102775.78;5092878;28;20040;-65
2020/12/26 07:02:07;;;;;;;6.53;1.20;;;;;;;8.48;100.00;102779.19;5092835;28;20047;-65
2020/12/26 07:04:38;;;;;;;13.40;1.00;;;;;;;8.49;100.00;102772.69;5093136;28;20043;-65
2020/12/26 07:07:04;;;;;;;13.85;1.50;;;;;;;8.49;100.00;102764.53;5092865;28;20036;-65
2020/12/26 07:09:35;;;;;;;13.90;1.38;;;;;;;8.49;100.00;102759.09;5092844;28;20039;-65
2020/12/26 07:12:01;;;;;;;9.60;1.00;;;;;;;8.52;100.00;102749.72;5092647;28;20028;-64
2020/12/26 07:14:31;;;;;;;6.65;0.95;;;;;;;8.55;100.00;102752.09;5092754;28;20070;-65
2020/12/26 07:17:02;;;;;;;10.77;0.80;;;;;;;8.55;100.00;102752.94;5092570;28;20055;-66
2020/12/26 07:19:35;;;;;;;9.48;1.17;;;;;;;8.55;100.00;102742.03;5092639;28;20036;-65
2020/12/26 07:22:02;;;;;;;9.15;0.90;;;;;;;8.56;100.00;102743.72;5091070;28;20390;-65
2020/12/26 07:24:37;;;;;;;13.75;1.67;;;;;;;8.61;100.00;102746.75;5092936;28;20077;-65
2020/12/26 07:27:22;;;;;;;11.30;1.50;;;;;;;8.65;100.00;102737.16;5092660;28;20028;-65
2020/12/26 07:30:05;;;;;;;9.65;1.33;;;;;;;8.69;100.00;102735.78;5091682;28;20043;-65
2020/12/26 07:32:40;;;;;;;8.32;0.93;;;;;;;8.70;100.00;102733.91;5092255;28;20165;-66
2020/12/26 07:35:11;;;;;;;8.18;0.70;;;;;;;8.72;100.00;102727.25;5092315;28;20040;-65
2020/12/26 07:37:41;;;;;;;11.77;1.13;;;;;;;8.74;100.00;102730.63;5092189;28;20535;-65
2020/12/26 07:40:07;;;;;;;16.50;1.40;;;;;;;8.77;100.00;102727.53;5092286;28;20064;-65
2020/12/26 07:42:34;;;;;;;5.47;0.98;;;;;;;8.79;100.00;102721.06;5092091;28;20067;-65
2020/12/26 07:45:09;;;;;;;14.57;1.00;;;;;;;8.82;100.00;102709.78;5092062;28;20051;-66
2020/12/26 07:47:40;;;;;;;8.75;0.82;;;;;;;8.83;100.00;102711.47;5092031;28;20036;-65
2020/12/26 07:50:06;;;;;;;7.97;0.88;;;;;;;8.84;100.00;102710.44;5092074;28;20035;-65
2020/12/26 07:52:31;;;;;;;7.25;0.80;;;;;;;8.85;100.00;102709.41;5092006;28;20036;-65
2020/12/26 07:54:58;;;;;;;11.65;1.27;;;;;;;8.88;100.00;102703.59;5091943;28;20067;-65
2020/12/26 07:57:25;;;;;;;10.60;1.45;;;;;;;8.89;100.00;102705.28;5091812;28;20036;-65
2020/12/26 07:59:50;;;;;;;12.00;1.38;;;;;;;8.89;100.00;102697.97;5092316;28;20036;-65
2020/12/26 08:02:16;;;;;;;5.57;0.95;;;;;;;8.90;100.00;102693.38;5091766;28;20043;-65
2020/12/26 08:04:45;;;;;;;5.38;0.75;;;;;;;8.90;100.00;102696.94;5091763;28;20074;-65
2020/12/26 08:07:13;;;;;;;9.10;1.20;;;;;;;8.93;100.00;102687.53;5091594;28;20119;-66
2020/12/26 08:09:38;;;;;;;10.23;1.27;;;;;;;8.95;100.00;102689.03;5091718;28;20036;-65
2020/12/26 08:12:06;;;;;;;8.63;1.13;;;;;;;8.97;100.00;102688.84;5091626;28;20074;-65
2020/12/26 08:14:32;;;;;;;9.82;0.80;;;;;;;8.99;100.00;102689.50;5089975;28;20056;-65
2020/12/26 08:16:58;;;;;;;7.47;0.98;;;;;;;9.00;100.00;102685.75;5091560;28;20047;-64
2020/12/26 08:19:25;;;;;;;9.55;1.02;;;;;;;9.01;100.00;102691.00;5091539;28;20044;-65
2020/12/26 08:21:58;;;;;;;13.30;1.40;;;;;;;9.03;100.00;102693.56;5091739;28;20035;-66
2020/12/26 08:24:24;;;;;;;5.30;0.70;;;;;;;9.03;100.00;102693.56;5091335;28;20103;-64
2020/12/26 08:26:53;;;;;;;7.20;0.82;;;;;;;9.03;100.00;102690.84;5091319;28;20048;-66
2020/12/26 08:29:24;;;;;;;7.85;0.93;;;;;;;9.05;100.00;102694.22;5091442;28;20062;-66
2020/12/26 08:31:54;;;;;;;11.35;1.30;;;;;;;9.06;100.00;102687.75;5091313;28;20036;-64
2020/12/26 08:34:38;;;;;;;9.48;1.35;;;;;;;9.07;100.00;102697.63;5091269;28;20040;-66
2020/12/26 08:37:15;;;;;;;14.40;1.20;;;;;;;9.08;100.00;102696.56;5091283;28;20058;-64
2020/12/26 08:39:42;;;;;;;10.50;0.73;;;;;;;9.09;100.00;102695.53;5091105;28;20035;-64
2020/12/26 08:42:13;;;;;;;12.20;1.00;;;;;;;9.11;100.00;102690.75;5091051;28;20036;-65
2020/12/26 08:44:39;;;;;;;8.05;1.10;;;;;;;9.11;100.00;102690.75;5091151;28;20422;-65
2020/12/26 08:47:06;;;;;;;8.48;1.00;;;;;;;9.13;100.00;102691.41;5091045;28;20086;-65
2020/12/26 08:49:32;;;;;;;8.77;0.70;;;;;;;9.14;100.00;102686.78;5089730;28;20386;-65
2020/12/26 08:52:00;;;;;;;5.47;0.73;;;;;;;9.16;100.00;102685.56;5090983;28;20047;-65
2020/12/26 08:54:26;;;;;;;6.80;0.68;;;;;;;9.17;100.00;102681.81;5090978;28;20117;-66
2020/12/26 08:56:52;;;;;;;7.57;0.73;;;;;;;9.18;100.00;102688.94;5090901;28;20040;-64
2020/12/26 08:59:28;;;;;;;12.35;1.27;;;;;;;9.20;100.00;102678.72;5090988;28;20032;-65
2020/12/26 09:01:55;;;;;;;11.48;1.10;;;;;;;9.22;100.00;102684.84;5090972;28;20112;-65
2020/12/26 09:04:20;;;;;;;7.35;0.70;;;;;;;9.23;100.00;102669.31;5090777;28;20036;-65
2020/12/26 09:06:46;;;;;;;16.17;1.48;;;;;;;9.25;100.00;102668.09;5090830;28;20032;-65
2020/12/26 09:09:19;;;;;;;6.15;0.80;;;;;;;9.28;100.00;102662.25;5090853;28;20490;-65
2020/12/26 09:11:45;;;;;;;7.43;0.80;;;;;;;9.30;100.00;102668.38;5090886;28;20040;-64
2020/12/26 09:14:21;;;;;;;9.05;1.10;;;;;;;9.34;100.00;102649.75;5090602;28;20470;-65
2020/12/26 09:16:55;;;;;;;8.07;0.90;;;;;;;9.36;100.00;102642.22;5090847;28;20036;-65
2020/12/26 09:19:21;;;;;;;6.63;1.00;;;;;;;9.38;100.00;102629.25;5090827;28;20367;-65
2020/12/26 09:21:46;;;;;;;3.72;0.60;;;;;;;9.43;100.00;102631.41;5091049;28;20070;-65
2020/12/26 09:24:20;;;;;;;11.68;1.02;;;;;;;9.43;100.00;102628.69;5090630;28;20051;-65
2020/12/26 09:26:46;;;;;;;4.25;0.70;;;;;;;9.48;100.00;102639.84;5090812;28;20105;-66
2020/12/26 09:29:22;;;;;;;7.30;0.70;;;;;;;9.53;100.00;102637.38;5090749;28;20124;-66
2020/12/26 09:31:48;;;;;;;9.05;1.42;;;;;;;9.58;100.00;102634.94;5090714;28;20038;-65
2020/12/26 09:34:22;;;;;;;4.05;0.50;;;;;;;9.62;100.00;102608.97;5090676;28;20398;-65
2020/12/26 09:36:48;;;;;;;7.10;0.93;;;;;;;9.66;100.00;102621.19;5090572;28;20039;-65
2020/12/26 09:39:14;;;;;;;3.75;0.80;;;;;;;9.66;100.00;102623.91;5090673;28;20121;-66
2020/12/26 09:41:48;;;;;;;7.88;0.60;;;;;;;9.66;100.00;102618.44;5090631;28;20067;-65
2020/12/26 09:44:14;;;;;;;4.25;0.43;;;;;;;9.68;100.00;102624.56;5090438;28;20036;-65
2020/12/26 09:46:41;;;;;;;5.80;0.80;;;;;;;9.69;100.00;102618.06;5089249;28;20035;-65
2020/12/26 09:49:07;;;;;;;5.05;0.63;;;;;;;9.70;100.00;102622.47;5090480;28;20036;-65
2020/12/26 09:51:33;;;;;;;7.80;0.80;;;;;;;9.72;100.00;102614.97;5090665;28;20481;-66
2020/12/26 09:53:58;;;;;;;3.75;0.50;;;;;;;9.74;100.00;102610.16;5093907;28;20112;-66
2020/12/26 09:56:24;;;;;;;3.63;0.57;;;;;;;9.76;100.00;102599.06;5092932;28;20036;-65
2020/12/26 09:58:50;;;;;;;5.47;0.60;;;;;;;9.76;100.00;102605.34;5094121;28;20036;-65
2020/12/26 10:01:17;;;;;;;10.60;0.80;;;;;;;9.76;100.00;102599.91;5094127;28;20036;-65
2020/12/26 10:03:44;;;;;;;11.70;1.02;;;;;;;9.79;100.00;102604.97;5093963;28;20039;-65
2020/12/26 10:06:14;;;;;;;6.95;1.23;;;;;;;9.82;100.00;102599.09;5094068;28;20165;-65
2020/12/26 10:08:42;;;;;;;6.82;1.00;;;;;;;9.83;100.00;102587.16;5093947;28;20107;-66
2020/12/26 10:11:12;;;;;;;5.38;0.63;;;;;;;9.83;100.00;102589.88;5093959;28;20398;-66
2020/12/26 10:13:39;;;;;;;11.57;1.38;;;;;;;9.84;100.00;102579.81;5093730;28;20059;-65
2020/12/26 10:16:04;;;;;;;8.13;1.33;;;;;;;9.86;100.00;102567.66;5093811;28;20047;-66
2020/12/26 10:18:30;;;;;;;5.05;0.77;;;;;;;9.90;100.00;102573.59;5093592;28;20040;-65
2020/12/26 10:20:55;;;;;;;7.43;0.80;;;;;;;9.90;100.00;102566.25;5093820;28;20073;-66
2020/12/26 10:23:21;;;;;;;5.90;0.70;;;;;;;9.94;100.00;102550.31;5093648;28;20081;-66
2020/12/26 10:25:47;;;;;;;4.38;0.93;;;;;;;9.98;100.00;102549.72;5093598;28;20070;-65
2020/12/26 10:28:13;;;;;;;5.32;0.70;;;;;;;10.01;100.00;102526.63;5093528;28;20028;-66
2020/12/26 10:30:38;;;;;;;12.32;2.13;;;;;;;10.06;100.00;102523.31;5093567;28;20088;-66
2020/12/26 10:33:04;;;;;;;4.60;0.40;;;;;;;10.07;100.00;102536.78;5093461;28;20032;-65
2020/12/26 10:35:29;;;;;;;5.75;0.75;;;;;;;10.09;100.00;102531.13;5093503;28;20088;-65
2020/12/26 10:37:55;;;;;;;7.75;1.25;;;;;;;10.09;100.00;102517.47;5093439;28;20036;-65
2020/12/26 10:40:20;;;;;;;8.02;0.63;;;;;;;10.09;100.00;102520.19;5093327;28;20050;-65
2020/12/26 10:42:46;;;;;;;8.25;1.23;;;;;;;10.09;100.00;102522.94;5093095;28;20036;-66
2020/12/26 10:45:12;;;;;;;5.63;0.52;;;;;;;10.09;100.00;102533.84;5093316;28;20032;-66
2020/12/26 10:47:37;;;;;;;7.22;0.98;;;;;;;10.11;100.00;102520.84;5093164;28;20489;-65
2020/12/26 10:50:04;;;;;;;5.75;1.13;;;;;;;10.14;100.00;102509.53;5093090;28;20374;-64
2020/12/26 10:52:32;;;;;;;8.00;0.98;;;;;;;10.16;100.00;102507.44;5093291;28;20359;-65
2020/12/26 10:54:58;;;;;;;5.63;0.73;;;;;;;10.17;100.00;102506.38;5093072;28;20039;-65
2020/12/26 10:57:24;;;;;;;13.15;1.20;;;;;;;10.18;100.00;102483.50;5093312;28;20048;-65
2020/12/26 10:59:49;;;;;;;6.75;1.02;;;;;;;10.17;100.00;102465.44;5093002;28;20101;-66
2020/12/26 11:02:15;;;;;;;8.55;1.00;;;;;;;10.18;100.00;102484.34;5092964;28;20060;-66
2020/12/26 11:04:40;;;;;;;6.57;0.90;;;;;;;10.18;100.00;102475.31;5091740;28;20640;-65
2020/12/26 11:07:06;;;;;;;5.80;1.10;;;;;;;10.21;100.00;102472.19;5092816;28;20035;-65
2020/12/26 11:09:32;;;;;;;6.00;0.70;;;;;;;10.19;100.00;102474.25;5092838;28;20043;-65
2020/12/26 11:11:57;;;;;;;9.23;0.93;;;;;;;10.22;100.00;102460.22;5092933;28;20032;-66
2020/12/26 11:14:26;;;;;;;7.88;0.80;;;;;;;10.25;100.00;102463.44;5092473;28;20413;-65
2020/12/26 11:16:59;;;;;;;8.35;1.45;;;;;;;10.27;100.00;102449.56;5091283;28;20043;-65
2020/12/26 11:19:24;;;;;;;8.95;1.08;;;;;;;10.29;100.00;102450.22;5092738;28;20032;-65
2020/12/26 11:22:10;;;;;;;8.00;0.93;;;;;;;10.33;100.00;102437.84;5092668;28;20043;-65
2020/12/26 11:24:35;;;;;;;9.10;1.02;;;;;;;10.36;100.00;102431.97;5092090;28;20060;-65